Weather at Alonso Valderrama Airport

Public forecast

Using degrees Celsius for public forecast. Weather courtesy of forecast.io.

Closest aviation weather report (METAR) to Alonso Valderrama Airport

Closest report is Marcos A. Gelabert International Airport, 77.9 nm (144.3 km) NE.

2023/01/28 14:00 (retrieved 15 minutes ago)

MPMG 281400Z 36013KT 9000 FEW020 28/21 Q1012 NOSIG

Closest aviation forecast (TAF) to Alonso Valderrama Airport

Closest forecast is Marcos A. Gelabert International Airport, 77.9 nm (144.3 km) NE.

2023/01/28 12:21 (retrieved 2 hours ago)

TAF MPMG 281100Z 2812/2824 34008KT 9999 FEW020 TEMPO 2818/2822 35014KT